Terminal Aerodrome Forecast
Issued by NWS

Home | Current Version | Previous Version | Text Only | Print | Product List | Glossary On
Versions: 1 2 3 4 5 6 7 8 9 10 11 12 13 14 15 16 17 18 19
000
FTUS43 KIND 231100
TAFHUF
TAF
KHUF 231122Z 2312/2412 00000KT 5SM BR SKC
     FM231300 19005KT P6SM SCT250
     FM231900 21005KT P6SM BKN200
     FM240400 18002KT P6SM SCT040 BKN080=

USA.gov is the U.S. government's official web portal to all federal, state and local government web resources and services.